Decoded Metar for LROD (ORADEA in ROMANIA) (IATA:OMR) | Meteo·Mobile Aviation Weather
aviador You're here:

LROD Decoded Metar

ORADEA in ROMANIA
Report Time2019-03-22 14:30:00
UTC Time2019-03-22 14:44:56
Flight Rules vfr VFR
Wind020° at 11 kt
W.Decomp.*RWY 01: 10.9 kt HW 1.1 kt RCW
W.Rank020° ranks 6
Current wind is above 020° avg. (7.8)
Visibility9999 m
Phenomena:N/A
Clouds:N/A
Expected CloudBase > 4,400 ft AGL from Temp-Dew spread
CeilingNone
Temp16°C (ISA +2)
Dew Point05°C (48% RH)
AAT10.9°C
QNH1029 hPa
Density Alt269 ft
Elevation459 ft
Report Wrong Elevation
Raw Report
METAR LROD 221430Z 02011KT CAVOK 16/05 Q1029=

Extra information for LROD:More info

Metar Taf Metar & Taf Last 4 Metars F.Rules Stats Wind Profile Meteogram Temp Stats Airport Information Weather charts Add Link Nearby VenuesMetar ALERT Operation Metar Decoded Social comments